Schedule Details


Flight Number: CTN700
Departure: Franjo Tudman (LDZA) at 07:45
Arrival: Lisbon (LPPT) at 10:10
Route: KOTOR?UT742?NAKIT?UL615?ROTAR?DCT?BENUS?DCT?IVLOX?DCT?DORAV?DCT?BORDI?UZ185?KOLON?UM984?DIVKO?UN975?BGR?UQ47?ASTRO?UM985?YES?UN747?SVL?UM744?ROSAL?UZ227?EXONA

Weather Information
LDZA 092200Z 24003KT CAVOK 06/M01 Q1022 NOSIG
LPPT 092200Z 27003KT 220V330 9999 FEW006 BKN008 16/16 Q1021
Schedule Frequency

Route Map